sensor_id;sensor_type;location;lat;lon;timestamp;pressure;altitude;pressure_sealevel;temperature;humidity
67517;BME280;54359;59.124;37.910;2023-01-29T00:01:02;99604.13;;;-7.02;85.89
67517;BME280;54359;59.124;37.910;2023-01-29T00:03:28;99593.94;;;-7.05;86.02
67517;BME280;54359;59.124;37.910;2023-01-29T00:05:54;99603.38;;;-7.01;85.84
67517;BME280;54359;59.124;37.910;2023-01-29T00:08:19;99609.13;;;-7.02;84.79
67517;BME280;54359;59.124;37.910;2023-01-29T00:10:45;99591.56;;;-7.03;85.82
67517;BME280;54359;59.124;37.910;2023-01-29T00:13:12;99589.13;;;-7.02;85.95
67517;BME280;54359;59.124;37.910;2023-01-29T00:15:38;99593.50;;;-6.99;85.56
67517;BME280;54359;59.124;37.910;2023-01-29T00:18:04;99591.63;;;-7.02;85.56
67517;BME280;54359;59.124;37.910;2023-01-29T00:20:30;99586.03;;;-6.99;85.92
67517;BME280;54359;59.124;37.910;2023-01-29T00:22:57;99593.06;;;-6.94;85.38
67517;BME280;54359;59.124;37.910;2023-01-29T00:25:23;99601.38;;;-6.83;84.91
67517;BME280;54359;59.124;37.910;2023-01-29T00:27:50;99571.56;;;-6.92;85.50
67517;BME280;54359;59.124;37.910;2023-01-29T00:30:17;99594.19;;;-6.78;85.55
67517;BME280;54359;59.124;37.910;2023-01-29T00:32:44;99583.09;;;-6.82;84.76
67517;BME280;54359;59.124;37.910;2023-01-29T00:35:10;99576.38;;;-6.83;85.57
67517;BME280;54359;59.124;37.910;2023-01-29T00:37:36;99584.75;;;-6.82;85.57
67517;BME280;54359;59.124;37.910;2023-01-29T00:40:04;99549.97;;;-6.91;84.52
67517;BME280;54359;59.124;37.910;2023-01-29T00:42:31;99553.91;;;-6.83;85.61
67517;BME280;54359;59.124;37.910;2023-01-29T00:45:15;99557.25;;;-6.82;85.92
67517;BME280;54359;59.124;37.910;2023-01-29T00:47:41;99540.31;;;-6.86;85.69
67517;BME280;54359;59.124;37.910;2023-01-29T00:50:09;99548.13;;;-6.82;85.84
67517;BME280;54359;59.124;37.910;2023-01-29T00:52:37;99540.50;;;-6.83;85.89
67517;BME280;54359;59.124;37.910;2023-01-29T00:55:07;99549.63;;;-6.84;85.12
67517;BME280;54359;59.124;37.910;2023-01-29T00:57:35;99541.28;;;-6.84;85.45
67517;BME280;54359;59.124;37.910;2023-01-29T01:00:04;99545.50;;;-6.83;85.66
67517;BME280;54359;59.124;37.910;2023-01-29T01:02:31;99539.44;;;-6.87;85.31
67517;BME280;54359;59.124;37.910;2023-01-29T01:05:16;99527.81;;;-6.75;86.36
67517;BME280;54359;59.124;37.910;2023-01-29T01:07:47;99525.53;;;-6.60;86.22
67517;BME280;54359;59.124;37.910;2023-01-29T01:10:18;99510.53;;;-6.60;85.40
67517;BME280;54359;59.124;37.910;2023-01-29T01:12:52;99496.63;;;-6.56;84.75
67517;BME280;54359;59.124;37.910;2023-01-29T01:15:19;99501.09;;;-6.64;84.77
67517;BME280;54359;59.124;37.910;2023-01-29T01:17:47;99477.63;;;-6.78;85.39
67517;BME280;54359;59.124;37.910;2023-01-29T01:20:17;99493.16;;;-6.70;84.59
67517;BME280;54359;59.124;37.910;2023-01-29T01:22:43;99494.44;;;-6.75;84.90
67517;BME280;54359;59.124;37.910;2023-01-29T01:25:11;99497.94;;;-6.73;85.54
67517;BME280;54359;59.124;37.910;2023-01-29T01:27:37;99481.19;;;-6.86;84.63
67517;BME280;54359;59.124;37.910;2023-01-29T01:30:13;99506.63;;;-6.80;85.19
67517;BME280;54359;59.124;37.910;2023-01-29T01:32:40;99500.44;;;-6.85;86.17
67517;BME280;54359;59.124;37.910;2023-01-29T01:35:08;99506.31;;;-6.84;84.89
67517;BME280;54359;59.124;37.910;2023-01-29T01:37:34;99500.53;;;-6.83;84.87
67517;BME280;54359;59.124;37.910;2023-01-29T01:40:04;99470.47;;;-6.97;84.88
67517;BME280;54359;59.124;37.910;2023-01-29T01:42:38;99496.19;;;-6.86;85.21
67517;BME280;54359;59.124;37.910;2023-01-29T01:45:13;99493.16;;;-6.58;87.01
67517;BME280;54359;59.124;37.910;2023-01-29T01:47:46;99488.34;;;-6.55;85.37
67517;BME280;54359;59.124;37.910;2023-01-29T01:52:53;99491.41;;;-6.59;84.78
67517;BME280;54359;59.124;37.910;2023-01-29T01:55:23;99486.41;;;-6.59;85.74
67517;BME280;54359;59.124;37.910;2023-01-29T01:57:56;99488.72;;;-6.62;84.80
67517;BME280;54359;59.124;37.910;2023-01-29T02:00:25;99487.81;;;-6.63;84.74
67517;BME280;54359;59.124;37.910;2023-01-29T02:02:51;99478.59;;;-6.64;84.45
67517;BME280;54359;59.124;37.910;2023-01-29T02:05:38;99461.53;;;-6.70;86.13
67517;BME280;54359;59.124;37.910;2023-01-29T02:08:29;99468.59;;;-6.76;85.37
67517;BME280;54359;59.124;37.910;2023-01-29T02:11:16;99472.31;;;-6.71;85.55
67517;BME280;54359;59.124;37.910;2023-01-29T02:13:42;99453.19;;;-6.82;85.75
67517;BME280;54359;59.124;37.910;2023-01-29T02:16:08;99448.06;;;-6.83;84.38
67517;BME280;54359;59.124;37.910;2023-01-29T02:18:34;99434.28;;;-6.90;84.58
67517;BME280;54359;59.124;37.910;2023-01-29T02:21:39;99444.28;;;-6.90;84.50
67517;BME280;54359;59.124;37.910;2023-01-29T02:27:11;99460.59;;;-6.95;84.92
67517;BME280;54359;59.124;37.910;2023-01-29T02:30:12;99433.66;;;-6.99;84.62
67517;BME280;54359;59.124;37.910;2023-01-29T02:32:52;99422.69;;;-7.01;84.99
67517;BME280;54359;59.124;37.910;2023-01-29T02:40:45;99441.88;;;-7.00;85.02
67517;BME280;54359;59.124;37.910;2023-01-29T02:54:19;99401.50;;;-7.18;84.67
67517;BME280;54359;59.124;37.910;2023-01-29T02:59:41;99410.19;;;-7.13;85.61
67517;BME280;54359;59.124;37.910;2023-01-29T03:02:12;99388.25;;;-7.17;85.69
67517;BME280;54359;59.124;37.910;2023-01-29T03:04:45;99386.75;;;-7.15;84.97
67517;BME280;54359;59.124;37.910;2023-01-29T03:07:22;99389.97;;;-7.16;85.02
67517;BME280;54359;59.124;37.910;2023-01-29T03:10:20;99390.09;;;-7.15;85.87
67517;BME280;54359;59.124;37.910;2023-01-29T03:12:50;99387.16;;;-7.09;84.44
67517;BME280;54359;59.124;37.910;2023-01-29T03:15:27;99376.88;;;-7.14;84.66
67517;BME280;54359;59.124;37.910;2023-01-29T03:18:17;99360.69;;;-7.19;84.83
67517;BME280;54359;59.124;37.910;2023-01-29T03:20:54;99362.19;;;-7.09;85.04
67517;BME280;54359;59.124;37.910;2023-01-29T03:23:28;99356.09;;;-7.13;85.29
67517;BME280;54359;59.124;37.910;2023-01-29T03:26:14;99356.22;;;-7.11;85.47
67517;BME280;54359;59.124;37.910;2023-01-29T03:29:00;99367.50;;;-7.04;85.54
67517;BME280;54359;59.124;37.910;2023-01-29T03:31:47;99367.63;;;-7.03;84.76
67517;BME280;54359;59.124;37.910;2023-01-29T03:34:36;99351.44;;;-7.08;85.47
67517;BME280;54359;59.124;37.910;2023-01-29T03:37:12;99376.94;;;-7.00;85.84
67517;BME280;54359;59.124;37.910;2023-01-29T03:39:40;99369.25;;;-7.03;85.94
67517;BME280;54359;59.124;37.910;2023-01-29T03:47:19;99354.88;;;-6.94;84.81
67517;BME280;54359;59.124;37.910;2023-01-29T03:52:59;99359.44;;;-6.89;86.09
67517;BME280;54359;59.124;37.910;2023-01-29T03:55:40;99345.19;;;-6.90;85.65
67517;BME280;54359;59.124;37.910;2023-01-29T03:58:48;99345.19;;;-6.78;86.28
67517;BME280;54359;59.124;37.910;2023-01-29T04:01:32;99339.84;;;-6.71;84.56
67517;BME280;54359;59.124;37.910;2023-01-29T04:04:11;99323.38;;;-6.80;85.19
67517;BME280;54359;59.124;37.910;2023-01-29T04:06:44;99328.47;;;-6.79;85.65
67517;BME280;54359;59.124;37.910;2023-01-29T04:09:17;99316.53;;;-6.83;84.88
67517;BME280;54359;59.124;37.910;2023-01-29T04:12:09;99315.00;;;-6.81;84.99
67517;BME280;54359;59.124;37.910;2023-01-29T04:14:41;99308.16;;;-6.83;85.67
67517;BME280;54359;59.124;37.910;2023-01-29T04:17:17;99302.19;;;-6.85;84.48
67517;BME280;54359;59.124;37.910;2023-01-29T04:20:03;99302.84;;;-6.88;85.37
67517;BME280;54359;59.124;37.910;2023-01-29T04:22:35;99289.50;;;-6.89;86.09
67517;BME280;54359;59.124;37.910;2023-01-29T04:25:09;99287.84;;;-6.88;85.39
67517;BME280;54359;59.124;37.910;2023-01-29T04:27:51;99279.50;;;-6.89;85.67
67517;BME280;54359;59.124;37.910;2023-01-29T04:30:42;99279.81;;;-6.84;85.80
67517;BME280;54359;59.124;37.910;2023-01-29T04:38:53;99285.03;;;-6.81;84.98
67517;BME280;54359;59.124;37.910;2023-01-29T04:41:36;99272.31;;;-6.84;85.31
67517;BME280;54359;59.124;37.910;2023-01-29T04:44:19;99269.38;;;-6.78;85.23
67517;BME280;54359;59.124;37.910;2023-01-29T04:47:01;99263.59;;;-6.77;85.62
67517;BME280;54359;59.124;37.910;2023-01-29T04:49:59;99255.34;;;-6.76;84.64
67517;BME280;54359;59.124;37.910;2023-01-29T04:52:59;99256.09;;;-6.77;85.51
67517;BME280;54359;59.124;37.910;2023-01-29T04:56:08;99209.72;;;-6.99;84.68
67517;BME280;54359;59.124;37.910;2023-01-29T04:58:46;99238.81;;;-6.74;84.80
67517;BME280;54359;59.124;37.910;2023-01-29T05:01:16;99229.16;;;-6.81;85.86
67517;BME280;54359;59.124;37.910;2023-01-29T05:03:49;99233.72;;;-6.76;86.08
67517;BME280;54359;59.124;37.910;2023-01-29T05:06:22;99221.91;;;-6.78;85.67
67517;BME280;54359;59.124;37.910;2023-01-29T05:08:51;99217.88;;;-6.76;85.74
67517;BME280;54359;59.124;37.910;2023-01-29T05:11:19;99209.28;;;-6.80;86.09
67517;BME280;54359;59.124;37.910;2023-01-29T05:13:47;99220.38;;;-6.63;85.46
67517;BME280;54359;59.124;37.910;2023-01-29T05:16:26;99192.41;;;-6.71;85.34
67517;BME280;54359;59.124;37.910;2023-01-29T05:18:54;99202.44;;;-6.57;85.08
67517;BME280;54359;59.124;37.910;2023-01-29T05:21:22;99202.44;;;-6.57;85.34
67517;BME280;54359;59.124;37.910;2023-01-29T05:24:11;99187.66;;;-6.54;86.38
67517;BME280;54359;59.124;37.910;2023-01-29T05:26:39;99199.66;;;-6.49;85.88
67517;BME280;54359;59.124;37.910;2023-01-29T05:29:25;99181.69;;;-6.56;85.44
67517;BME280;54359;59.124;37.910;2023-01-29T05:31:51;99190.44;;;-6.50;84.96
67517;BME280;54359;59.124;37.910;2023-01-29T05:34:18;99180.44;;;-6.50;85.38
67517;BME280;54359;59.124;37.910;2023-01-29T05:36:45;99176.31;;;-6.49;85.41
67517;BME280;54359;59.124;37.910;2023-01-29T05:39:10;99188.06;;;-6.35;85.00
67517;BME280;54359;59.124;37.910;2023-01-29T05:41:38;99187.19;;;-6.35;85.86
67517;BME280;54359;59.124;37.910;2023-01-29T05:44:04;99171.97;;;-6.38;84.97
67517;BME280;54359;59.124;37.910;2023-01-29T05:46:30;99183.72;;;-6.37;85.96
67517;BME280;54359;59.124;37.910;2023-01-29T05:49:03;99178.63;;;-6.39;86.29
67517;BME280;54359;59.124;37.910;2023-01-29T05:51:31;99172.31;;;-6.34;86.30
67517;BME280;54359;59.124;37.910;2023-01-29T05:53:56;99173.38;;;-6.17;86.08
67517;BME280;54359;59.124;37.910;2023-01-29T05:56:22;99164.31;;;-6.15;86.17
67517;BME280;54359;59.124;37.910;2023-01-29T05:58:50;99175.19;;;-6.01;85.65
67517;BME280;54359;59.124;37.910;2023-01-29T06:01:18;99174.13;;;-6.04;85.42
67517;BME280;54359;59.124;37.910;2023-01-29T06:03:46;99180.09;;;-6.02;85.65
67517;BME280;54359;59.124;37.910;2023-01-29T06:06:13;99160.84;;;-6.03;85.71
67517;BME280;54359;59.124;37.910;2023-01-29T06:08:39;99168.44;;;-6.02;85.49
67517;BME280;54359;59.124;37.910;2023-01-29T06:11:12;99163.72;;;-5.97;85.86
67517;BME280;54359;59.124;37.910;2023-01-29T06:13:39;99133.25;;;-6.05;85.43
67517;BME280;54359;59.124;37.910;2023-01-29T06:16:09;99157.59;;;-6.02;85.31
67517;BME280;54359;59.124;37.910;2023-01-29T06:18:44;99132.66;;;-6.14;85.84
67517;BME280;54359;59.124;37.910;2023-01-29T06:21:12;99154.28;;;-6.01;84.89
67517;BME280;54359;59.124;37.910;2023-01-29T06:23:42;99146.78;;;-6.01;85.34
67517;BME280;54359;59.124;37.910;2023-01-29T06:26:13;99146.72;;;-6.03;85.42
67517;BME280;54359;59.124;37.910;2023-01-29T06:28:40;99128.44;;;-6.15;85.20
67517;BME280;54359;59.124;37.910;2023-01-29T06:31:12;99153.44;;;-6.02;85.68
67517;BME280;54359;59.124;37.910;2023-01-29T06:33:42;99143.06;;;-6.08;85.42
67517;BME280;54359;59.124;37.910;2023-01-29T06:36:10;99123.25;;;-6.05;85.28
67517;BME280;54359;59.124;37.910;2023-01-29T06:38:37;99153.66;;;-5.99;85.53
67517;BME280;54359;59.124;37.910;2023-01-29T06:41:10;99135.81;;;-6.03;85.43
67517;BME280;54359;59.124;37.910;2023-01-29T06:43:38;99122.09;;;-5.97;85.66
67517;BME280;54359;59.124;37.910;2023-01-29T06:46:07;99150.22;;;-5.86;85.54
67517;BME280;54359;59.124;37.910;2023-01-29T06:48:34;99143.00;;;-5.81;85.21
67517;BME280;54359;59.124;37.910;2023-01-29T06:51:06;99109.50;;;-5.83;86.25
67517;BME280;54359;59.124;37.910;2023-01-29T06:53:33;99136.59;;;-5.63;86.42
67517;BME280;54359;59.124;37.910;2023-01-29T06:56:07;99130.84;;;-5.62;85.69
67517;BME280;54359;59.124;37.910;2023-01-29T06:58:36;99136.59;;;-5.50;85.62
67517;BME280;54359;59.124;37.910;2023-01-29T07:01:07;99118.25;;;-5.49;84.84
67517;BME280;54359;59.124;37.910;2023-01-29T07:03:34;99119.22;;;-5.47;85.07
67517;BME280;54359;59.124;37.910;2023-01-29T07:06:02;99128.13;;;-5.52;85.16
67517;BME280;54359;59.124;37.910;2023-01-29T07:08:28;99111.06;;;-5.57;84.89
67517;BME280;54359;59.124;37.910;2023-01-29T07:11:04;99115.59;;;-5.52;85.45
67517;BME280;54359;59.124;37.910;2023-01-29T07:13:41;99116.13;;;-5.42;85.15
67517;BME280;54359;59.124;37.910;2023-01-29T07:16:10;99093.66;;;-5.56;85.15
67517;BME280;54359;59.124;37.910;2023-01-29T07:18:38;99126.34;;;-5.39;85.41
67517;BME280;54359;59.124;37.910;2023-01-29T07:21:05;99119.59;;;-5.40;85.12
67517;BME280;54359;59.124;37.910;2023-01-29T07:23:35;99110.53;;;-5.38;85.54
67517;BME280;54359;59.124;37.910;2023-01-29T07:26:03;99115.81;;;-5.34;85.37
67517;BME280;54359;59.124;37.910;2023-01-29T07:28:37;99101.09;;;-5.42;84.89
67517;BME280;54359;59.124;37.910;2023-01-29T07:31:06;99114.19;;;-5.33;84.99
67517;BME280;54359;59.124;37.910;2023-01-29T07:33:56;99079.94;;;-5.48;85.80
67517;BME280;54359;59.124;37.910;2023-01-29T07:36:53;99088.44;;;-5.31;85.55
67517;BME280;54359;59.124;37.910;2023-01-29T07:39:34;99062.94;;;-5.38;85.61
67517;BME280;54359;59.124;37.910;2023-01-29T07:42:01;99085.69;;;-5.20;84.97
67517;BME280;54359;59.124;37.910;2023-01-29T07:44:35;99089.31;;;-5.15;85.64
67517;BME280;54359;59.124;37.910;2023-01-29T07:47:03;99095.22;;;-5.15;85.94
67517;BME280;54359;59.124;37.910;2023-01-29T07:49:36;99088.66;;;-5.13;85.54
67517;BME280;54359;59.124;37.910;2023-01-29T07:52:03;99072.56;;;-5.16;85.29
67517;BME280;54359;59.124;37.910;2023-01-29T07:54:34;99076.28;;;-5.10;85.44
67517;BME280;54359;59.124;37.910;2023-01-29T07:57:32;99082.88;;;-4.97;85.91
67517;BME280;54359;59.124;37.910;2023-01-29T08:00:04;99088.06;;;-4.94;84.98
67517;BME280;54359;59.124;37.910;2023-01-29T08:02:41;99069.22;;;-5.02;85.47
67517;BME280;54359;59.124;37.910;2023-01-29T08:05:09;99061.69;;;-5.02;85.30
67517;BME280;54359;59.124;37.910;2023-01-29T08:07:40;99075.88;;;-4.88;85.46
67517;BME280;54359;59.124;37.910;2023-01-29T08:10:11;99023.44;;;-5.14;85.20
67517;BME280;54359;59.124;37.910;2023-01-29T08:12:46;99079.94;;;-4.75;85.50
67517;BME280;54359;59.124;37.910;2023-01-29T08:15:27;99057.03;;;-4.81;84.89
67517;BME280;54359;59.124;37.910;2023-01-29T08:18:02;99066.63;;;-4.74;85.27
67517;BME280;54359;59.124;37.910;2023-01-29T08:20:37;99030.78;;;-4.88;85.25
67517;BME280;54359;59.124;37.910;2023-01-29T08:23:12;99029.91;;;-4.88;85.50
67517;BME280;54359;59.124;37.910;2023-01-29T08:25:39;99059.97;;;-4.73;85.24
67517;BME280;54359;59.124;37.910;2023-01-29T08:28:04;99042.34;;;-4.75;85.40
67517;BME280;54359;59.124;37.910;2023-01-29T08:30:32;99007.88;;;-4.94;85.34
67517;BME280;54359;59.124;37.910;2023-01-29T08:32:58;98996.72;;;-4.99;85.53
67517;BME280;54359;59.124;37.910;2023-01-29T08:35:25;99038.88;;;-4.77;85.67
67517;BME280;54359;59.124;37.910;2023-01-29T08:37:56;99049.78;;;-4.61;85.15
67517;BME280;54359;59.124;37.910;2023-01-29T08:40:24;99052.28;;;-4.61;85.29
67517;BME280;54359;59.124;37.910;2023-01-29T08:42:50;99023.84;;;-4.77;85.58
67517;BME280;54359;59.124;37.910;2023-01-29T08:45:16;99015.22;;;-4.82;85.79
67517;BME280;54359;59.124;37.910;2023-01-29T08:47:47;99042.31;;;-4.60;85.31
67517;BME280;54359;59.124;37.910;2023-01-29T08:50:14;99036.28;;;-4.63;84.71
67517;BME280;54359;59.124;37.910;2023-01-29T08:52:41;99023.28;;;-4.56;85.10
67517;BME280;54359;59.124;37.910;2023-01-29T08:55:07;99005.03;;;-4.54;85.51
67517;BME280;54359;59.124;37.910;2023-01-29T08:57:33;99030.66;;;-4.28;85.78
67517;BME280;54359;59.124;37.910;2023-01-29T09:00:00;98998.16;;;-4.41;85.08
67517;BME280;54359;59.124;37.910;2023-01-29T09:02:27;99019.84;;;-4.27;85.20
67517;BME280;54359;59.124;37.910;2023-01-29T09:04:53;98986.50;;;-4.41;85.17
67517;BME280;54359;59.124;37.910;2023-01-29T09:07:20;98987.50;;;-4.37;85.11
67517;BME280;54359;59.124;37.910;2023-01-29T09:09:49;99005.38;;;-4.16;84.94
67517;BME280;54359;59.124;37.910;2023-01-29T09:12:15;98995.00;;;-4.22;85.53
67517;BME280;54359;59.124;37.910;2023-01-29T09:14:41;99001.03;;;-4.19;85.21
67517;BME280;54359;59.124;37.910;2023-01-29T09:17:06;99008.75;;;-3.99;85.45
67517;BME280;54359;59.124;37.910;2023-01-29T09:19:32;98979.88;;;-4.08;85.44
67517;BME280;54359;59.124;37.910;2023-01-29T09:22:00;98970.94;;;-4.02;85.37
67517;BME280;54359;59.124;37.910;2023-01-29T09:24:25;98968.69;;;-3.98;85.28
67517;BME280;54359;59.124;37.910;2023-01-29T09:26:54;98967.34;;;-3.91;85.82
67517;BME280;54359;59.124;37.910;2023-01-29T09:29:20;99013.25;;;-3.61;84.98
67517;BME280;54359;59.124;37.910;2023-01-29T09:31:46;99005.72;;;-3.61;85.47
67517;BME280;54359;59.124;37.910;2023-01-29T09:34:11;98966.53;;;-3.74;85.71
67517;BME280;54359;59.124;37.910;2023-01-29T09:36:37;98986.47;;;-3.60;85.56
67517;BME280;54359;59.124;37.910;2023-01-29T09:39:03;98960.25;;;-3.66;85.65
67517;BME280;54359;59.124;37.910;2023-01-29T09:44:01;98986.53;;;-3.42;85.22
67517;BME280;54359;59.124;37.910;2023-01-29T09:46:46;98949.13;;;-3.71;85.19
67517;BME280;54359;59.124;37.910;2023-01-29T09:52:16;98963.97;;;-3.59;85.88
67517;BME280;54359;59.124;37.910;2023-01-29T09:57:28;98974.03;;;-3.41;85.07
67517;BME280;54359;59.124;37.910;2023-01-29T09:59:58;98960.19;;;-3.51;85.00
67517;BME280;54359;59.124;37.910;2023-01-29T10:08:32;98992.16;;;-3.30;85.49
67517;BME280;54359;59.124;37.910;2023-01-29T10:11:19;98983.91;;;-3.28;84.84
67517;BME280;54359;59.124;37.910;2023-01-29T10:14:15;98911.13;;;-3.60;85.02
67517;BME280;54359;59.124;37.910;2023-01-29T10:16:48;98979.31;;;-3.18;85.64
67517;BME280;54359;59.124;37.910;2023-01-29T10:25:18;98904.63;;;-3.57;85.15
67517;BME280;54359;59.124;37.910;2023-01-29T10:27:49;98959.28;;;-3.17;84.39
67517;BME280;54359;59.124;37.910;2023-01-29T10:30:32;98948.00;;;-3.25;85.07
67517;BME280;54359;59.124;37.910;2023-01-29T10:33:04;98921.44;;;-3.38;84.79
67517;BME280;54359;59.124;37.910;2023-01-29T10:35:40;98948.59;;;-3.13;85.45
67517;BME280;54359;59.124;37.910;2023-01-29T10:38:59;98922.50;;;-3.33;85.35
67517;BME280;54359;59.124;37.910;2023-01-29T10:41:16;98933.78;;;-3.25;85.12
67517;BME280;54359;59.124;37.910;2023-01-29T10:46:53;98962.19;;;-3.09;84.87
67517;BME280;54359;59.124;37.910;2023-01-29T10:49:54;98951.97;;;-3.12;85.14
67517;BME280;54359;59.124;37.910;2023-01-29T10:52:34;98934.81;;;-3.21;84.38
67517;BME280;54359;59.124;37.910;2023-01-29T11:00:44;98925.69;;;-3.19;84.63
67517;BME280;54359;59.124;37.910;2023-01-29T11:03:17;98924.84;;;-3.19;84.78
67517;BME280;54359;59.124;37.910;2023-01-29T11:05:57;98942.16;;;-3.08;85.38
67517;BME280;54359;59.124;37.910;2023-01-29T11:08:30;98870.59;;;-3.50;84.43
67517;BME280;54359;59.124;37.910;2023-01-29T11:11:18;98925.19;;;-3.12;84.38
67517;BME280;54359;59.124;37.910;2023-01-29T11:14:01;98929.50;;;-3.09;85.26
67517;BME280;54359;59.124;37.910;2023-01-29T11:16:40;98909.97;;;-3.15;84.96
67517;BME280;54359;59.124;37.910;2023-01-29T11:19:07;98921.16;;;-3.08;85.61
67517;BME280;54359;59.124;37.910;2023-01-29T11:22:00;98924.91;;;-3.00;84.78
67517;BME280;54359;59.124;37.910;2023-01-29T11:24:27;98889.00;;;-3.15;84.81
67517;BME280;54359;59.124;37.910;2023-01-29T11:26:59;98904.78;;;-3.00;85.34
67517;BME280;54359;59.124;37.910;2023-01-29T11:31:53;98881.09;;;-3.05;85.41
67517;BME280;54359;59.124;37.910;2023-01-29T11:34:22;98871.91;;;-3.05;85.46
67517;BME280;54359;59.124;37.910;2023-01-29T11:36:58;98910.09;;;-2.76;85.48
67517;BME280;54359;59.124;37.910;2023-01-29T11:39:26;98899.81;;;-2.80;85.11
67517;BME280;54359;59.124;37.910;2023-01-29T11:42:00;98912.75;;;-2.73;85.00
67517;BME280;54359;59.124;37.910;2023-01-29T11:44:39;98908.31;;;-2.78;85.14
67517;BME280;54359;59.124;37.910;2023-01-29T11:47:19;98905.91;;;-2.75;85.25
67517;BME280;54359;59.124;37.910;2023-01-29T11:49:49;98914.34;;;-2.75;85.66
67517;BME280;54359;59.124;37.910;2023-01-29T11:52:19;98870.13;;;-3.07;84.87
67517;BME280;54359;59.124;37.910;2023-01-29T11:57:26;98881.66;;;-3.11;84.91
67517;BME280;54359;59.124;37.910;2023-01-29T11:59:55;98856.97;;;-3.37;84.74
67517;BME280;54359;59.124;37.910;2023-01-29T12:02:34;98921.53;;;-3.00;84.55
67517;BME280;54359;59.124;37.910;2023-01-29T12:05:17;98911.06;;;-3.10;85.09
67517;BME280;54359;59.124;37.910;2023-01-29T12:07:48;98873.28;;;-3.29;85.40
67517;BME280;54359;59.124;37.910;2023-01-29T12:10:41;98881.75;;;-3.27;84.88
67517;BME280;54359;59.124;37.910;2023-01-29T12:15:47;98873.78;;;-3.36;84.34
67517;BME280;54359;59.124;37.910;2023-01-29T12:21:04;98884.16;;;-3.29;85.16
67517;BME280;54359;59.124;37.910;2023-01-29T12:26:18;98912.97;;;-3.04;84.43
67517;BME280;54359;59.124;37.910;2023-01-29T12:34:36;98901.78;;;-3.11;85.23
67517;BME280;54359;59.124;37.910;2023-01-29T12:37:11;98898.53;;;-3.08;84.36
67517;BME280;54359;59.124;37.910;2023-01-29T12:39:38;98871.31;;;-3.17;85.28
67517;BME280;54359;59.124;37.910;2023-01-29T12:47:44;98890.50;;;-3.01;84.89
67517;BME280;54359;59.124;37.910;2023-01-29T12:50:25;98899.91;;;-2.97;84.75
67517;BME280;54359;59.124;37.910;2023-01-29T12:52:59;98858.47;;;-3.23;84.83
67517;BME280;54359;59.124;37.910;2023-01-29T12:55:32;98860.22;;;-3.22;84.41
67517;BME280;54359;59.124;37.910;2023-01-29T12:58:28;98901.41;;;-3.00;84.87
67517;BME280;54359;59.124;37.910;2023-01-29T13:00:55;98840.41;;;-3.34;84.42
67517;BME280;54359;59.124;37.910;2023-01-29T13:03:56;98904.94;;;-2.97;84.66
67517;BME280;54359;59.124;37.910;2023-01-29T13:06:38;98900.78;;;-2.96;85.04
67517;BME280;54359;59.124;37.910;2023-01-29T13:09:17;98831.00;;;-3.38;85.09
67517;BME280;54359;59.124;37.910;2023-01-29T13:11:54;98895.00;;;-2.94;84.65
67517;BME280;54359;59.124;37.910;2023-01-29T13:14:44;98870.59;;;-3.14;84.74
67517;BME280;54359;59.124;37.910;2023-01-29T13:19:56;98875.34;;;-3.03;84.64
67517;BME280;54359;59.124;37.910;2023-01-29T13:22:25;98840.16;;;-3.20;85.17
67517;BME280;54359;59.124;37.910;2023-01-29T13:24:52;98866.94;;;-3.03;84.79
67517;BME280;54359;59.124;37.910;2023-01-29T13:27:27;98861.84;;;-3.05;85.43
67517;BME280;54359;59.124;37.910;2023-01-29T13:29:55;98838.53;;;-3.20;85.19
67517;BME280;54359;59.124;37.910;2023-01-29T13:32:27;98886.63;;;-2.94;85.10
67517;BME280;54359;59.124;37.910;2023-01-29T13:34:59;98883.31;;;-2.93;85.59
67517;BME280;54359;59.124;37.910;2023-01-29T13:37:51;98872.25;;;-2.97;84.83
67517;BME280;54359;59.124;37.910;2023-01-29T13:40:26;98877.22;;;-2.98;85.05
67517;BME280;54359;59.124;37.910;2023-01-29T13:59:20;98873.78;;;-3.36;84.77
67517;BME280;54359;59.124;37.910;2023-01-29T14:02:25;98895.44;;;-3.20;85.29
67517;BME280;54359;59.124;37.910;2023-01-29T14:08:01;98869.63;;;-3.18;86.10
67517;BME280;54359;59.124;37.910;2023-01-29T14:10:29;98894.06;;;-2.78;86.26
67517;BME280;54359;59.124;37.910;2023-01-29T14:15:40;98853.13;;;-2.36;86.33
67517;BME280;54359;59.124;37.910;2023-01-29T14:18:44;98871.81;;;-2.12;86.19
67517;BME280;54359;59.124;37.910;2023-01-29T14:21:50;98811.28;;;-2.34;85.80
67517;BME280;54359;59.124;37.910;2023-01-29T14:25:15;98862.91;;;-1.84;85.87
67517;BME280;54359;59.124;37.910;2023-01-29T14:28:23;98830.50;;;-1.96;85.92
67517;BME280;54359;59.124;37.910;2023-01-29T14:34:00;98820.03;;;-1.86;85.65
67517;BME280;54359;59.124;37.910;2023-01-29T14:36:28;98828.63;;;-1.80;85.92
67517;BME280;54359;59.124;37.910;2023-01-29T14:39:03;98856.78;;;-1.70;85.51
67517;BME280;54359;59.124;37.910;2023-01-29T14:41:32;98867.94;;;-1.42;86.85
67517;BME280;54359;59.124;37.910;2023-01-29T14:49:58;98824.88;;;-1.48;85.67
67517;BME280;54359;59.124;37.910;2023-01-29T14:52:38;98869.09;;;-1.35;85.08
67517;BME280;54359;59.124;37.910;2023-01-29T14:55:09;98839.69;;;-1.77;85.10
67517;BME280;54359;59.124;37.910;2023-01-29T14:57:40;98843.97;;;-1.95;85.06
67517;BME280;54359;59.124;37.910;2023-01-29T15:00:37;98819.81;;;-2.31;85.22
67517;BME280;54359;59.124;37.910;2023-01-29T15:06:03;98868.31;;;-2.35;85.08
67517;BME280;54359;59.124;37.910;2023-01-29T15:08:44;98811.75;;;-2.82;85.78
67517;BME280;54359;59.124;37.910;2023-01-29T15:11:21;98852.03;;;-2.63;85.50
67517;BME280;54359;59.124;37.910;2023-01-29T15:19:22;98812.59;;;-3.01;85.56
67517;BME280;54359;59.124;37.910;2023-01-29T15:22:06;98816.47;;;-3.08;85.18
67517;BME280;54359;59.124;37.910;2023-01-29T15:24:34;98857.84;;;-2.81;85.00
67517;BME280;54359;59.124;37.910;2023-01-29T15:27:00;98850.91;;;-2.87;84.82
67517;BME280;54359;59.124;37.910;2023-01-29T15:29:26;98810.00;;;-3.20;85.09
67517;BME280;54359;59.124;37.910;2023-01-29T15:31:54;98821.44;;;-3.09;85.33
67517;BME280;54359;59.124;37.910;2023-01-29T15:34:20;98835.69;;;-3.08;85.52
67517;BME280;54359;59.124;37.910;2023-01-29T15:36:48;98838.22;;;-3.08;84.84
67517;BME280;54359;59.124;37.910;2023-01-29T15:39:17;98841.63;;;-3.08;84.84